createdAt,value
2018-09-24T00:00:34.846Z,99.99
2018-09-24T00:01:34.877Z,99.99
2018-09-24T00:02:34.908Z,99.99
2018-09-24T00:03:34.939Z,99.99
2018-09-24T00:04:34.974Z,99.99
2018-09-24T00:05:35.002Z,99.99
2018-09-24T00:06:35.032Z,99.99
2018-09-24T00:07:35.066Z,99.99
2018-09-24T00:08:35.096Z,99.99
2018-09-24T00:09:35.128Z,99.99
2018-09-24T00:10:35.157Z,99.99
2018-09-24T00:11:35.189Z,99.99
2018-09-24T00:12:35.221Z,99.99
2018-09-24T00:13:35.257Z,99.99
2018-09-24T00:14:35.283Z,99.99
2018-09-24T00:15:35.313Z,99.99
2018-09-24T00:16:35.344Z,99.99
2018-09-24T00:17:35.377Z,99.99
2018-09-24T00:18:35.407Z,99.99
2018-09-24T00:19:35.437Z,99.99
2018-09-24T00:20:35.474Z,99.99
2018-09-24T00:21:35.501Z,99.99
2018-09-24T00:22:35.530Z,99.99
2018-09-24T00:23:35.562Z,99.99
2018-09-24T00:24:35.593Z,99.99
2018-09-24T00:25:35.625Z,99.99
2018-09-24T00:26:35.655Z,99.99
2018-09-24T00:27:35.687Z,99.99
2018-09-24T00:28:35.719Z,99.99
2018-09-24T00:29:35.749Z,99.99
2018-09-24T00:30:35.780Z,99.99
2018-09-24T00:31:35.810Z,99.99
2018-09-24T00:32:35.842Z,99.99
2018-09-24T00:33:35.881Z,99.99
2018-09-24T00:34:35.904Z,99.99
2018-09-24T00:35:35.939Z,99.99
2018-09-24T00:36:35.967Z,99.99
2018-09-24T00:37:35.998Z,99.99
2018-09-24T00:38:36.033Z,99.99
2018-09-24T00:39:36.061Z,99.99
2018-09-24T00:40:36.090Z,99.99
2018-09-24T00:41:36.125Z,99.99
2018-09-24T00:42:36.158Z,99.99
2018-09-24T00:43:36.184Z,99.99
2018-09-24T00:44:36.216Z,99.99
2018-09-24T00:45:36.247Z,99.99
2018-09-24T00:46:36.279Z,99.99
2018-09-24T00:47:36.309Z,99.99
2018-09-24T00:48:36.341Z,99.99
2018-09-24T00:49:36.373Z,99.99
2018-09-24T00:50:36.405Z,99.99
2018-09-24T00:51:36.434Z,99.99
2018-09-24T00:52:36.465Z,99.99
2018-09-24T00:53:36.497Z,99.99
2018-09-24T00:54:36.531Z,99.99
2018-09-24T00:55:36.560Z,99.99
2018-09-24T00:56:36.591Z,99.99
2018-09-24T00:57:36.621Z,99.99
2018-09-24T00:58:36.653Z,99.99
2018-09-24T00:59:36.687Z,99.99
2018-09-24T01:00:36.716Z,99.99
2018-09-24T01:01:36.748Z,99.99
2018-09-24T01:02:36.779Z,99.99
2018-09-24T01:03:36.811Z,99.99
2018-09-24T01:04:36.842Z,99.99
2018-09-24T01:05:36.873Z,99.99
2018-09-24T01:06:36.904Z,99.99
2018-09-24T01:07:36.934Z,99.99
2018-09-24T01:08:36.966Z,99.99
2018-09-24T01:09:36.997Z,99.99
2018-09-24T01:10:37.028Z,99.99
2018-09-24T01:11:37.062Z,99.99
2018-09-24T01:12:37.102Z,99.99
2018-09-24T01:13:37.121Z,99.99
2018-09-24T01:14:37.153Z,99.99
2018-09-24T01:15:37.185Z,99.99
2018-09-24T01:16:37.215Z,99.71
2018-09-24T01:17:37.250Z,99.99
2018-09-24T01:18:37.278Z,99.99
2018-09-24T01:19:37.309Z,99.99
2018-09-24T01:20:37.340Z,99.99
2018-09-24T01:21:37.371Z,99.99
2018-09-24T01:22:37.401Z,99.99
2018-09-24T01:23:37.435Z,99.99
2018-09-24T01:24:37.465Z,99.99
2018-09-24T01:25:37.496Z,99.99
2018-09-24T01:26:37.526Z,99.99
2018-09-24T01:27:37.559Z,99.99
2018-09-24T01:28:37.590Z,99.99
2018-09-24T01:29:37.620Z,99.99
2018-09-24T01:30:37.651Z,99.99
2018-09-24T01:31:37.683Z,99.99
2018-09-24T01:32:37.713Z,99.99
2018-09-24T01:33:37.744Z,99.99
2018-09-24T01:34:37.776Z,99.99
2018-09-24T01:35:37.806Z,99.99
2018-09-24T01:36:37.839Z,99.99
2018-09-24T01:37:37.868Z,99.99
2018-09-24T01:38:37.897Z,99.99
2018-09-24T01:39:37.929Z,99.99
2018-09-24T01:40:37.961Z,99.99
2018-09-24T01:41:37.992Z,99.99
2018-09-24T01:42:38.022Z,99.99
2018-09-24T01:43:38.054Z,99.99
2018-09-24T01:44:38.087Z,99.99
2018-09-24T01:45:38.118Z,99.99
2018-09-24T01:46:38.147Z,99.99
2018-09-24T01:47:38.176Z,99.99
2018-09-24T01:48:38.210Z,99.99
2018-09-24T01:49:38.241Z,99.99
2018-09-24T01:50:38.269Z,99.99
2018-09-24T01:51:38.300Z,99.99
2018-09-24T01:52:38.331Z,99.99
2018-09-24T01:53:38.363Z,99.99
2018-09-24T01:54:38.393Z,99.99
2018-09-24T01:55:38.424Z,99.99
2018-09-24T01:56:38.454Z,99.99
2018-09-24T01:57:38.485Z,99.99
2018-09-24T01:58:38.517Z,99.99
2018-09-24T01:59:38.546Z,99.99
2018-09-24T02:00:38.577Z,99.99
2018-09-24T02:01:38.608Z,99.99
2018-09-24T02:02:38.640Z,99.99
2018-09-24T02:03:38.671Z,99.99
2018-09-24T02:04:38.700Z,99.99
2018-09-24T02:05:38.731Z,99.99
2018-09-24T02:06:38.760Z,99.99
2018-09-24T02:07:38.792Z,99.99
2018-09-24T02:08:38.823Z,99.99
2018-09-24T02:09:38.853Z,99.99
2018-09-24T02:10:38.883Z,99.99
2018-09-24T02:11:38.914Z,99.99
2018-09-24T02:12:38.945Z,99.99
2018-09-24T02:13:38.976Z,99.99
2018-09-24T02:14:39.006Z,99.99
2018-09-24T02:15:39.037Z,99.99
2018-09-24T02:16:39.068Z,99.99
2018-09-24T02:17:39.099Z,99.99
2018-09-24T02:18:39.132Z,99.99
2018-09-24T02:19:39.159Z,99.99
2018-09-24T02:20:39.189Z,99.99
2018-09-24T02:21:39.221Z,99.99
2018-09-24T02:22:39.251Z,99.99
2018-09-24T02:23:39.280Z,99.99
2018-09-24T02:24:39.312Z,99.99
2018-09-24T02:25:39.343Z,99.99
2018-09-24T02:26:39.377Z,99.99
2018-09-24T02:27:39.404Z,99.99
2018-09-24T02:28:39.435Z,99.99
2018-09-24T02:29:39.465Z,99.99
2018-09-24T02:30:39.495Z,99.99
2018-09-24T02:31:39.531Z,99.99
2018-09-24T02:32:39.556Z,99.99
2018-09-24T02:33:39.586Z,99.99
2018-09-24T02:34:39.616Z,99.99
2018-09-24T02:35:39.646Z,99.99
2018-09-24T02:36:39.677Z,99.99
2018-09-24T02:37:39.712Z,99.99
2018-09-24T02:38:39.740Z,99.99
2018-09-24T02:39:39.767Z,99.99
2018-09-24T02:40:39.800Z,99.99
2018-09-24T02:41:39.830Z,99.99
2018-09-24T02:42:39.858Z,99.99
2018-09-24T02:43:39.898Z,99.99
2018-09-24T02:44:39.919Z,99.99
2018-09-24T02:45:39.950Z,99.99
2018-09-24T02:46:39.980Z,99.99
2018-09-24T02:47:40.009Z,99.99
2018-09-24T02:48:40.041Z,99.99
2018-09-24T02:49:40.073Z,99.99
2018-09-24T02:50:40.101Z,99.99
2018-09-24T02:51:40.131Z,99.99
2018-09-24T02:52:40.160Z,99.99
2018-09-24T02:53:40.191Z,99.99
2018-09-24T02:54:40.220Z,99.99
2018-09-24T02:55:40.250Z,99.99
2018-09-24T02:56:40.283Z,99.99
2018-09-24T02:57:40.310Z,99.99
2018-09-24T02:58:40.340Z,99.99
2018-09-24T02:59:40.370Z,99.99
2018-09-24T03:00:40.401Z,99.99
2018-09-24T03:01:40.431Z,99.99
2018-09-24T03:02:40.460Z,99.99
2018-09-24T03:03:40.491Z,99.99
2018-09-24T03:04:40.521Z,99.99
2018-09-24T03:05:40.555Z,99.99
2018-09-24T03:06:40.589Z,99.99
2018-09-24T03:07:40.611Z,99.99
2018-09-24T03:08:40.641Z,99.99
2018-09-24T03:09:40.670Z,99.99
2018-09-24T03:10:40.701Z,99.99
2018-09-24T03:11:40.731Z,99.99
2018-09-24T03:12:40.761Z,99.99
2018-09-24T03:13:40.792Z,99.99
2018-09-24T03:14:40.820Z,99.99
2018-09-24T03:15:40.852Z,99.99
2018-09-24T03:16:40.881Z,99.99
2018-09-24T03:17:40.913Z,99.99
2018-09-24T03:18:40.939Z,99.99
2018-09-24T03:19:40.970Z,99.99
2018-09-24T03:20:40.999Z,99.99
2018-09-24T03:21:41.030Z,99.99
2018-09-24T03:22:41.060Z,99.99
2018-09-24T03:23:41.095Z,99.99
2018-09-24T03:24:41.121Z,99.99
2018-09-24T03:25:41.150Z,99.99
2018-09-24T03:26:41.180Z,99.99
2018-09-24T03:27:41.209Z,99.99
2018-09-24T03:28:41.239Z,99.99
2018-09-24T03:29:41.271Z,99.99
2018-09-24T03:30:41.298Z,99.99
2018-09-24T03:31:41.329Z,99.99
2018-09-24T03:32:41.360Z,99.99
2018-09-24T03:33:41.388Z,99.99
2018-09-24T03:34:41.421Z,99.99
2018-09-24T03:35:41.451Z,99.99
2018-09-24T03:36:41.477Z,99.99
2018-09-24T03:37:41.508Z,99.99
2018-09-24T03:38:41.537Z,99.99
2018-09-24T03:39:41.565Z,99.99
2018-09-24T03:40:41.596Z,99.99
2018-09-24T03:41:41.682Z,99.99
2018-09-24T03:42:41.656Z,99.99
2018-09-24T03:43:41.686Z,99.99
2018-09-24T03:44:41.715Z,99.99
2018-09-24T03:45:41.745Z,99.99
2018-09-24T03:46:41.773Z,99.99
2018-09-24T03:47:41.803Z,99.99
2018-09-24T03:48:41.834Z,99.99
2018-09-24T03:49:41.863Z,99.99
2018-09-24T03:50:41.892Z,99.99
2018-09-24T03:51:41.921Z,99.99
2018-09-24T03:52:41.951Z,99.99
2018-09-24T03:53:41.980Z,99.99
2018-09-24T03:54:42.011Z,99.99
2018-09-24T03:55:42.041Z,99.99
2018-09-24T03:56:42.070Z,99.99
2018-09-24T03:57:42.099Z,99.99
2018-09-24T03:58:42.128Z,99.99
2018-09-24T03:59:42.158Z,99.99
2018-09-24T04:00:42.188Z,99.99
2018-09-24T04:01:42.218Z,99.99
2018-09-24T04:02:42.246Z,99.99
2018-09-24T04:03:42.277Z,99.99
2018-09-24T04:04:42.307Z,99.99
2018-09-24T04:05:42.337Z,99.99
2018-09-24T04:06:42.365Z,99.99
2018-09-24T04:07:42.396Z,99.99
2018-09-24T04:08:42.425Z,99.99
2018-09-24T04:09:42.582Z,99.99
2018-09-24T04:10:42.521Z,99.99
2018-09-24T04:11:42.514Z,99.99
2018-09-24T04:12:42.543Z,99.99
2018-09-24T04:13:42.572Z,99.99
2018-09-24T04:14:42.602Z,99.99
2018-09-24T04:15:42.632Z,99.99
2018-09-24T04:16:42.661Z,99.99
2018-09-24T04:17:42.692Z,99.99
2018-09-24T04:18:42.728Z,99.99
2018-09-24T04:19:42.823Z,99.99
2018-09-24T04:20:42.780Z,99.99
2018-09-24T04:21:42.816Z,99.99
2018-09-24T04:22:42.840Z,99.99
2018-09-24T04:23:42.866Z,99.99
2018-09-24T04:24:42.898Z,99.99
2018-09-24T04:25:42.927Z,99.99
2018-09-24T04:26:42.956Z,99.99
2018-09-24T04:27:42.990Z,99.99
2018-09-24T04:28:43.023Z,99.99
2018-09-24T04:29:43.046Z,99.99
2018-09-24T04:30:43.074Z,99.99
2018-09-24T04:31:43.104Z,99.99
2018-09-24T04:32:43.135Z,99.99
2018-09-24T04:33:43.164Z,99.99
2018-09-24T04:34:43.192Z,99.99
2018-09-24T04:35:43.224Z,99.99
2018-09-24T04:36:43.251Z,99.99
2018-09-24T04:37:43.281Z,99.99
2018-09-24T04:38:43.310Z,99.99
2018-09-24T04:39:43.348Z,99.99
2018-09-24T04:40:43.372Z,99.99
2018-09-24T04:41:43.401Z,99.99
2018-09-24T04:42:43.429Z,99.99
2018-09-24T04:43:43.459Z,99.99
2018-09-24T04:44:43.488Z,99.99
2018-09-24T04:45:43.518Z,99.99
2018-09-24T04:46:43.549Z,99.99
2018-09-24T04:47:43.577Z,99.99
2018-09-24T04:48:43.607Z,99.99
2018-09-24T04:49:43.638Z,99.99
2018-09-24T04:50:43.665Z,99.99
2018-09-24T04:51:43.695Z,99.99
2018-09-24T04:52:43.725Z,99.99
2018-09-24T04:53:43.753Z,99.99
2018-09-24T04:54:43.783Z,99.99
2018-09-24T04:55:43.812Z,99.99
2018-09-24T04:56:43.843Z,99.99
2018-09-24T04:57:43.872Z,99.99
2018-09-24T04:58:43.954Z,99.99
2018-09-24T04:59:43.931Z,99.99
2018-09-24T05:00:43.962Z,99.99
2018-09-24T05:01:43.990Z,99.99
2018-09-24T05:02:44.018Z,99.99
2018-09-24T05:03:44.048Z,99.99
2018-09-24T05:04:44.079Z,99.99
2018-09-24T05:05:44.107Z,99.99
2018-09-24T05:06:44.137Z,99.99
2018-09-24T05:07:44.166Z,99.99
2018-09-24T05:08:44.195Z,99.99
2018-09-24T05:09:44.225Z,99.99
2018-09-24T05:10:44.254Z,99.99
2018-09-24T05:11:44.283Z,99.99
2018-09-24T05:12:44.313Z,99.99
2018-09-24T05:13:44.344Z,99.99
2018-09-24T05:14:44.373Z,99.99
2018-09-24T05:15:44.442Z,99.99
2018-09-24T05:16:44.431Z,99.99
2018-09-24T05:17:44.619Z,99.99
2018-09-24T05:18:44.489Z,99.99
2018-09-24T05:19:44.519Z,99.99
2018-09-24T05:20:44.549Z,99.99
2018-09-24T05:21:44.582Z,99.99
2018-09-24T05:22:44.608Z,99.99
2018-09-24T05:23:44.636Z,99.99
2018-09-24T05:24:44.667Z,99.99
2018-09-24T05:25:44.697Z,99.99
2018-09-24T05:26:44.726Z,99.99
2018-09-24T05:27:44.755Z,99.99
2018-09-24T05:28:44.784Z,99.99
2018-09-24T05:29:44.814Z,99.99
2018-09-24T05:30:44.843Z,99.99
2018-09-24T05:31:44.874Z,99.99
2018-09-24T05:32:44.903Z,99.99
2018-09-24T05:33:44.932Z,99.99
2018-09-24T05:34:44.961Z,99.99
2018-09-24T05:35:44.991Z,99.99
2018-09-24T05:36:45.021Z,99.99
2018-09-24T05:37:45.052Z,99.99
2018-09-24T05:38:45.080Z,99.99
2018-09-24T05:39:45.110Z,99.99
2018-09-24T05:40:45.140Z,99.99
2018-09-24T05:41:45.170Z,99.99
2018-09-24T05:42:45.197Z,99.99
2018-09-24T05:43:45.228Z,99.99
2018-09-24T05:44:45.258Z,99.99
2018-09-24T05:45:45.289Z,99.99
2018-09-24T05:46:45.324Z,99.99
2018-09-24T05:47:45.371Z,99.99
2018-09-24T05:48:45.380Z,99.99
2018-09-24T05:49:45.407Z,99.99
2018-09-24T05:50:45.436Z,99.99
2018-09-24T05:51:45.467Z,99.99
2018-09-24T05:52:45.498Z,99.99
2018-09-24T05:53:45.529Z,99.99
2018-09-24T05:54:45.556Z,99.99
2018-09-24T05:55:45.585Z,99.99
2018-09-24T05:56:45.615Z,99.99
2018-09-24T05:57:45.645Z,99.99
2018-09-24T05:58:45.674Z,99.99
2018-09-24T05:59:45.703Z,99.99
2018-09-24T06:00:45.733Z,99.99
2018-09-24T06:01:45.764Z,99.99
2018-09-24T06:02:45.795Z,99.99
2018-09-24T06:03:45.825Z,99.99
2018-09-24T06:04:45.853Z,99.99
2018-09-24T06:05:45.883Z,99.99
2018-09-24T06:06:45.915Z,99.99
2018-09-24T06:07:45.942Z,99.99
2018-09-24T06:08:45.972Z,99.99
2018-09-24T06:09:46.002Z,99.99
2018-09-24T06:10:46.031Z,99.99
2018-09-24T06:11:46.062Z,99.99
2018-09-24T06:12:46.091Z,99.99
2018-09-24T06:13:46.162Z,99.99
2018-09-24T06:14:46.153Z,99.99
2018-09-24T06:15:46.182Z,99.99
2018-09-24T06:16:46.210Z,99.99
2018-09-24T06:17:46.242Z,99.99
2018-09-24T06:18:46.269Z,99.99
2018-09-24T06:19:46.300Z,99.99
2018-09-24T06:20:46.330Z,99.99
2018-09-24T06:21:46.360Z,99.99
2018-09-24T06:22:46.388Z,99.99
2018-09-24T06:23:46.420Z,99.99
2018-09-24T06:24:46.448Z,99.99
2018-09-24T06:25:46.479Z,99.99
2018-09-24T06:26:46.508Z,99.99
2018-09-24T06:27:46.538Z,99.99
2018-09-24T06:28:46.569Z,99.99
2018-09-24T06:29:46.599Z,99.99
2018-09-24T06:30:46.629Z,99.99
2018-09-24T06:31:46.658Z,99.99
2018-09-24T06:32:46.689Z,99.99
2018-09-24T06:33:46.719Z,99.99
2018-09-24T06:34:46.748Z,99.99
2018-09-24T06:35:46.778Z,99.99
2018-09-24T06:36:46.808Z,99.99
2018-09-24T06:37:46.838Z,99.99
2018-09-24T06:38:46.867Z,99.99
2018-09-24T06:39:46.896Z,99.99
2018-09-24T06:40:46.931Z,99.99
2018-09-24T06:41:46.959Z,99.99
2018-09-24T06:42:46.988Z,99.99
2018-09-24T06:43:47.019Z,99.99
2018-09-24T06:44:47.048Z,99.99
2018-09-24T06:45:47.080Z,99.99
2018-09-24T06:46:47.109Z,99.99
2018-09-24T06:47:47.142Z,99.99
2018-09-24T06:48:47.168Z,99.99
2018-09-24T06:49:47.253Z,99.99
2018-09-24T06:50:47.230Z,99.99
2018-09-24T06:51:47.258Z,99.99
2018-09-24T06:52:47.289Z,99.99
2018-09-24T06:53:47.319Z,99.99
2018-09-24T06:54:47.349Z,99.99
2018-09-24T06:55:47.379Z,99.99
2018-09-24T06:56:47.415Z,99.99
2018-09-24T06:57:47.441Z,99.99
2018-09-24T06:58:47.470Z,99.99
2018-09-24T06:59:47.501Z,99.99
2018-09-24T07:00:47.531Z,99.99
2018-09-24T07:01:47.562Z,99.99
2018-09-24T07:02:47.592Z,99.99
2018-09-24T07:03:47.623Z,99.99
2018-09-24T07:04:47.653Z,99.99
2018-09-24T07:05:47.717Z,99.99
2018-09-24T07:06:47.712Z,99.99
2018-09-24T07:07:47.745Z,99.99
2018-09-24T07:08:47.775Z,99.99
2018-09-24T07:09:47.805Z,99.99
2018-09-24T07:10:47.834Z,99.99
2018-09-24T07:11:47.883Z,99.99
2018-09-24T07:12:47.897Z,99.99
2018-09-24T07:13:47.928Z,99.99
2018-09-24T07:14:47.957Z,99.99
2018-09-24T07:15:47.990Z,99.99
2018-09-24T07:16:48.019Z,99.99
2018-09-24T07:17:48.054Z,99.99
2018-09-24T07:18:48.083Z,99.99
2018-09-24T07:19:48.112Z,99.99
2018-09-24T07:20:48.141Z,99.99
2018-09-24T07:21:48.173Z,99.99
2018-09-24T07:22:48.203Z,99.99
2018-09-24T07:23:48.235Z,99.99
2018-09-24T07:24:48.265Z,99.99
2018-09-24T07:25:48.296Z,99.99
2018-09-24T07:26:48.326Z,99.99
2018-09-24T07:27:48.365Z,99.99
2018-09-24T07:28:48.388Z,99.99
2018-09-24T07:29:48.437Z,99.99
2018-09-24T07:30:48.450Z,99.99
2018-09-24T07:31:48.482Z,99.99
2018-09-24T07:32:48.513Z,99.99
2018-09-24T07:33:48.543Z,99.99
2018-09-24T07:34:48.573Z,99.99
2018-09-24T07:35:48.606Z,99.99
2018-09-24T07:36:48.637Z,99.99
2018-09-24T07:37:48.668Z,99.99
2018-09-24T07:38:48.699Z,99.99
2018-09-24T07:39:48.731Z,99.99
2018-09-24T07:40:48.761Z,99.99
2018-09-24T07:41:48.793Z,99.99
2018-09-24T07:42:48.825Z,99.99
2018-09-24T07:43:48.855Z,99.99
2018-09-24T07:44:48.888Z,99.99
2018-09-24T07:45:48.918Z,99.99
2018-09-24T07:46:48.950Z,99.99
2018-09-24T07:47:48.981Z,99.99
2018-09-24T07:48:49.012Z,99.99
2018-09-24T07:49:49.045Z,99.99
2018-09-24T07:50:49.075Z,99.99
2018-09-24T07:51:49.108Z,99.99
2018-09-24T07:52:49.138Z,99.99
2018-09-24T07:53:49.172Z,99.99
2018-09-24T07:54:49.201Z,99.99
2018-09-24T07:55:49.263Z,99.99
2018-09-24T07:56:49.265Z,99.99
2018-09-24T07:57:49.297Z,99.99
2018-09-24T07:58:49.332Z,99.99
2018-09-24T07:59:49.359Z,99.99
2018-09-24T08:00:49.395Z,99.99
2018-09-24T08:01:49.424Z,99.99
2018-09-24T08:02:49.462Z,99.99
2018-09-24T08:03:49.487Z,99.09
2018-09-24T08:04:49.523Z,98.13
2018-09-24T08:05:49.553Z,99.28
2018-09-24T08:06:49.584Z,98.80
2018-09-24T08:07:49.616Z,97.47
2018-09-24T08:08:49.648Z,98.38
2018-09-24T08:09:49.680Z,96.32
2018-09-24T08:10:49.715Z,93.93
2018-09-24T08:11:49.746Z,94.17
2018-09-24T08:12:49.817Z,92.54
2018-09-24T08:13:49.809Z,91.49
2018-09-24T08:14:49.842Z,90.58
2018-09-24T08:15:49.875Z,88.85
2018-09-24T08:16:49.912Z,90.67
2018-09-24T08:17:49.939Z,90.39
2018-09-24T08:18:49.972Z,89.90
2018-09-24T08:19:50.004Z,90.58
2018-09-24T08:20:50.039Z,90.00
2018-09-24T08:21:50.071Z,90.86
2018-09-24T08:22:50.103Z,91.34
2018-09-24T08:23:50.136Z,89.81
2018-09-24T08:24:50.170Z,89.67
2018-09-24T08:25:50.202Z,90.34
2018-09-24T08:26:50.235Z,90.34
2018-09-24T08:27:50.269Z,90.53
2018-09-24T08:28:50.320Z,90.24
2018-09-24T08:29:50.335Z,89.67
2018-09-24T08:30:50.368Z,89.62
2018-09-24T08:31:50.401Z,88.61
2018-09-24T08:32:50.434Z,87.61
2018-09-24T08:33:50.467Z,88.47
2018-09-24T08:34:50.498Z,87.51
2018-09-24T08:35:50.533Z,86.07
2018-09-24T08:36:50.567Z,85.21
2018-09-24T08:37:50.601Z,85.00
2018-09-24T08:38:50.634Z,76.94
2018-09-24T08:39:50.667Z,73.73
2018-09-24T08:40:50.702Z,75.54
2018-09-24T08:41:50.736Z,79.68
2018-09-24T08:42:50.769Z,81.01
2018-09-24T08:43:50.804Z,76.52
2018-09-24T08:44:50.838Z,75.57
2018-09-24T08:45:50.873Z,77.80
2018-09-24T08:46:50.906Z,79.49
2018-09-24T08:47:50.941Z,82.09
2018-09-24T08:48:50.976Z,83.04
2018-09-24T08:49:51.028Z,75.21
2018-09-24T08:50:51.044Z,69.71
2018-09-24T08:51:51.078Z,65.30
2018-09-24T08:52:51.119Z,66.55
2018-09-24T08:53:51.149Z,68.29
2018-09-24T08:54:51.184Z,67.36
2018-09-24T08:55:51.219Z,65.20
2018-09-24T08:56:51.315Z,63.18
2018-09-24T08:57:51.291Z,59.70
2018-09-24T08:58:51.327Z,60.83
2018-09-24T08:59:51.363Z,63.73
2018-09-24T09:00:51.400Z,60.54
2018-09-24T09:01:51.437Z,63.09
2018-09-24T09:02:51.545Z,64.47
2018-09-24T09:03:51.511Z,65.46
2018-09-24T09:04:51.547Z,65.81
2018-09-24T09:05:51.584Z,67.63
2018-09-24T09:06:51.619Z,71.86
2018-09-24T09:07:51.656Z,72.81
2018-09-24T09:08:51.691Z,73.74
2018-09-24T09:09:51.729Z,75.04
2018-09-24T09:10:51.765Z,74.79
2018-09-24T09:11:51.801Z,72.58
2018-09-24T09:12:51.838Z,69.34
2018-09-24T09:13:51.874Z,66.56
2018-09-24T09:14:51.908Z,62.63
2018-09-24T09:15:51.946Z,61.15
2018-09-24T09:16:51.983Z,55.92
2018-09-24T09:17:52.020Z,54.81
2018-09-24T09:18:52.057Z,53.07
2018-09-24T09:19:52.096Z,51.31
2018-09-24T09:20:52.132Z,49.29
2018-09-24T09:21:52.172Z,49.68
2018-09-24T09:22:52.208Z,49.00
2018-09-24T09:23:52.301Z,49.02
2018-09-24T09:24:52.288Z,49.05
2018-09-24T09:25:52.331Z,54.98
2018-09-24T09:26:52.367Z,60.46
2018-09-24T09:27:52.406Z,64.56
2018-09-24T09:28:52.447Z,61.77
2018-09-24T09:29:52.487Z,56.22
2018-09-24T09:30:52.523Z,52.95
2018-09-24T09:31:52.564Z,49.95
2018-09-24T09:32:52.607Z,47.03
2018-09-24T09:33:52.647Z,47.67
2018-09-24T09:34:52.684Z,48.22
2018-09-24T09:35:52.725Z,46.77
2018-09-24T09:36:52.766Z,45.18
2018-09-24T09:37:52.808Z,44.94
2018-09-24T09:38:52.849Z,44.10
2018-09-24T09:39:52.890Z,42.57
2018-09-24T09:40:52.938Z,41.81
2018-09-24T09:41:52.975Z,40.29
2018-09-24T09:42:53.021Z,38.95
2018-09-24T09:43:53.062Z,41.59
2018-09-24T09:44:53.102Z,43.70
2018-09-24T09:45:53.145Z,47.69
2018-09-24T09:46:53.239Z,46.26
2018-09-24T09:47:53.229Z,45.34
2018-09-24T09:48:53.275Z,46.89
2018-09-24T09:49:53.317Z,51.23
2018-09-24T09:50:53.361Z,53.99
2018-09-24T09:51:53.404Z,55.77
2018-09-24T09:52:53.448Z,57.27
2018-09-24T09:53:53.491Z,55.26
2018-09-24T09:54:53.533Z,51.78
2018-09-24T09:55:53.576Z,51.37
2018-09-24T09:56:53.647Z,47.30
2018-09-24T09:57:53.662Z,47.36
2018-09-24T09:58:56.790Z,49.85
2018-09-24T09:59:53.748Z,52.64
2018-09-24T10:00:53.791Z,56.25
2018-09-24T10:01:53.833Z,56.58
2018-09-24T10:02:53.874Z,57.47
2018-09-24T10:03:53.917Z,57.73
2018-09-24T10:04:54.028Z,60.36
2018-09-24T10:05:53.999Z,57.18
2018-09-24T10:06:54.040Z,56.95
2018-09-24T10:07:54.083Z,51.13
2018-09-24T10:08:54.121Z,48.47
2018-09-24T10:09:54.165Z,45.17
2018-09-24T10:10:54.201Z,41.72
2018-09-24T10:11:54.244Z,39.95
2018-09-24T10:12:54.285Z,39.92
2018-09-24T10:13:54.328Z,39.67
2018-09-24T10:14:54.367Z,38.36
2018-09-24T10:15:54.409Z,37.52
2018-09-24T10:16:54.456Z,37.33
2018-09-24T10:17:54.537Z,36.24
2018-09-24T10:18:54.537Z,37.33
2018-09-24T10:19:54.581Z,37.25
2018-09-24T10:20:54.624Z,36.29
2018-09-24T10:21:54.668Z,37.04
2018-09-24T10:22:54.713Z,37.10
2018-09-24T10:23:54.756Z,37.02
2018-09-24T10:24:54.801Z,37.37
2018-09-24T10:25:54.846Z,36.82
2018-09-24T10:26:54.890Z,36.10
2018-09-24T10:27:54.936Z,35.24
2018-09-24T10:28:54.980Z,33.46
2018-09-24T10:29:55.027Z,33.30
2018-09-24T10:30:55.071Z,32.66
2018-09-24T10:31:55.117Z,31.51
2018-09-24T10:32:55.164Z,31.99
2018-09-24T10:33:55.209Z,31.87
2018-09-24T10:34:55.255Z,31.60
2018-09-24T10:35:55.305Z,29.49
2018-09-24T10:36:55.350Z,29.99
2018-09-24T10:37:55.398Z,31.46
2018-09-24T10:38:55.443Z,31.20
2018-09-24T10:39:55.493Z,30.87
2018-09-24T10:40:55.538Z,30.70
2018-09-24T10:41:55.586Z,32.48
2018-09-24T10:42:55.633Z,34.53
2018-09-24T10:43:55.681Z,36.00
2018-09-24T10:44:55.728Z,37.78
2018-09-24T10:45:55.811Z,39.36
2018-09-24T10:46:55.822Z,39.59
2018-09-24T10:47:55.870Z,40.03
2018-09-24T10:48:55.916Z,37.92
2018-09-24T10:49:55.963Z,34.74
2018-09-24T10:50:56.009Z,35.08
2018-09-24T10:51:56.054Z,33.48
2018-09-24T10:52:56.120Z,32.39
2018-09-24T10:53:56.149Z,32.13
2018-09-24T10:54:56.195Z,32.55
2018-09-24T10:55:56.257Z,30.29
2018-09-24T10:56:56.289Z,30.84
2018-09-24T10:57:56.337Z,32.26
2018-09-24T10:58:56.384Z,30.25
2018-09-24T10:59:56.431Z,31.07
2018-09-24T11:00:56.478Z,32.06
2018-09-24T11:01:56.528Z,30.23
2018-09-24T11:02:56.574Z,29.08
2018-09-24T11:03:56.622Z,29.03
2018-09-24T11:04:56.748Z,27.50
2018-09-24T11:05:56.719Z,28.34
2018-09-24T11:06:56.767Z,27.67
2018-09-24T11:07:56.828Z,28.43
2018-09-24T11:08:56.862Z,30.09
2018-09-24T11:09:56.913Z,33.04
2018-09-24T11:10:56.963Z,37.63
2018-09-24T11:11:57.009Z,39.01
2018-09-24T11:12:57.059Z,42.72
2018-09-24T11:13:57.114Z,42.97
2018-09-24T11:14:57.183Z,39.51
2018-09-24T11:15:57.345Z,35.50
2018-09-24T11:16:57.487Z,32.53
2018-09-24T11:17:57.414Z,32.78
2018-09-24T11:18:57.338Z,31.07
2018-09-24T11:19:57.385Z,30.51
2018-09-24T11:20:57.432Z,29.14
2018-09-24T11:21:57.494Z,30.47
2018-09-24T11:22:57.527Z,29.86
2018-09-24T11:23:57.574Z,32.28
2018-09-24T11:24:57.621Z,32.18
2018-09-24T11:25:57.664Z,31.04
2018-09-24T11:26:57.710Z,30.49
2018-09-24T11:27:57.758Z,28.38
2018-09-24T11:28:57.805Z,27.62
2018-09-24T11:29:57.854Z,27.49
2018-09-24T11:30:57.897Z,28.01
2018-09-24T11:31:57.944Z,27.17
2018-09-24T11:32:57.995Z,25.88
2018-09-24T11:33:58.040Z,25.15
2018-09-24T11:34:58.086Z,25.34
2018-09-24T11:35:58.137Z,24.92
2018-09-24T11:37:58.231Z,26.29
2018-09-24T11:38:58.278Z,26.32
2018-09-24T11:39:58.327Z,25.76
2018-09-24T11:40:58.376Z,24.07
2018-09-24T11:41:58.427Z,23.80
2018-09-24T11:42:58.473Z,23.96
2018-09-24T11:43:58.522Z,24.79
2018-09-24T11:44:59.382Z,25.57
2018-09-24T11:45:58.622Z,25.54
2018-09-24T11:47:58.720Z,32.81
2018-09-24T11:48:58.769Z,37.03
2018-09-24T11:49:58.817Z,37.48
2018-09-24T11:50:58.865Z,37.15
2018-09-24T11:51:58.914Z,34.88
2018-09-24T11:52:58.962Z,33.54
2018-09-24T11:53:59.010Z,33.31
2018-09-24T11:54:59.057Z,36.04
2018-09-24T11:55:59.105Z,34.59
2018-09-24T11:56:59.154Z,34.66
2018-09-24T11:57:59.200Z,32.79
2018-09-24T11:58:59.247Z,30.69
2018-09-24T11:59:59.296Z,28.47
2018-09-24T12:00:59.343Z,28.01
2018-09-24T12:01:59.398Z,26.69
2018-09-24T12:02:59.439Z,25.88
2018-09-24T12:03:59.487Z,25.98
2018-09-24T12:04:59.537Z,25.43
2018-09-24T12:05:59.585Z,24.92
2018-09-24T12:06:59.633Z,25.60
2018-09-24T12:07:59.682Z,25.71
2018-09-24T12:08:59.733Z,24.96
2018-09-24T12:09:59.781Z,28.13
2018-09-24T12:10:59.830Z,28.53
2018-09-24T12:11:59.880Z,28.32
2018-09-24T12:12:59.930Z,30.03
2018-09-24T12:13:59.980Z,28.78
2018-09-24T12:15:00.028Z,28.61
2018-09-24T12:16:00.077Z,28.53
2018-09-24T12:17:00.126Z,28.36
2018-09-24T12:18:00.181Z,27.69
2018-09-24T12:19:00.226Z,27.33
2018-09-24T12:20:00.274Z,26.33
2018-09-24T12:21:00.324Z,27.20
2018-09-24T12:22:00.372Z,26.66
2018-09-24T12:23:00.421Z,27.34
2018-09-24T12:24:00.486Z,27.38
2018-09-24T12:25:00.524Z,27.24
2018-09-24T12:26:00.570Z,25.38
2018-09-24T12:27:00.620Z,25.85
2018-09-24T12:28:00.669Z,25.09
2018-09-24T12:29:00.741Z,25.34
2018-09-24T12:30:00.771Z,28.04
2018-09-24T12:31:00.817Z,31.54
2018-09-24T12:32:00.867Z,31.09
2018-09-24T12:33:00.917Z,32.54
2018-09-24T12:34:00.967Z,35.28
2018-09-24T12:35:01.016Z,36.32
2018-09-24T12:36:01.063Z,34.43
2018-09-24T12:37:01.111Z,31.77
2018-09-24T12:38:01.159Z,31.10
2018-09-24T12:39:01.208Z,28.40
2018-09-24T12:40:01.254Z,27.59
2018-09-24T12:41:01.305Z,28.44
2018-09-24T12:42:01.350Z,29.81
2018-09-24T12:43:01.397Z,33.47
2018-09-24T12:44:01.446Z,32.10
2018-09-24T12:45:01.494Z,29.96
2018-09-24T12:46:01.544Z,30.19
2018-09-24T12:47:01.589Z,30.16
2018-09-24T12:48:01.663Z,28.47
2018-09-24T12:49:01.685Z,27.48
2018-09-24T12:50:01.737Z,27.14
2018-09-24T12:51:01.779Z,25.62
2018-09-24T12:52:01.827Z,25.12
2018-09-24T12:53:01.875Z,24.73
2018-09-24T12:54:01.924Z,24.55
2018-09-24T12:55:01.971Z,24.16